sensor_id;sensor_type;location;lat;lon;timestamp;P1;durP1;ratioP1;P2;durP2;ratioP2
52320;SDS011;38261;54.090;13.382;2023-04-08T00:00:39;25.53;;;11.80;;
52320;SDS011;38261;54.090;13.382;2023-04-08T00:02:01;28.57;;;12.13;;
52320;SDS011;38261;54.090;13.382;2023-04-08T00:03:23;29.10;;;12.00;;
52320;SDS011;38261;54.090;13.382;2023-04-08T00:04:46;31.33;;;12.80;;
52320;SDS011;38261;54.090;13.382;2023-04-08T00:06:08;37.43;;;13.90;;
52320;SDS011;38261;54.090;13.382;2023-04-08T00:07:30;31.30;;;13.63;;
52320;SDS011;38261;54.090;13.382;2023-04-08T00:08:52;24.67;;;10.60;;
52320;SDS011;38261;54.090;13.382;2023-04-08T00:10:14;32.97;;;13.50;;
52320;SDS011;38261;54.090;13.382;2023-04-08T00:11:36;33.00;;;14.23;;
52320;SDS011;38261;54.090;13.382;2023-04-08T00:12:59;32.00;;;11.70;;
52320;SDS011;38261;54.090;13.382;2023-04-08T00:14:21;31.70;;;12.67;;
52320;SDS011;38261;54.090;13.382;2023-04-08T00:15:43;35.70;;;13.77;;
52320;SDS011;38261;54.090;13.382;2023-04-08T00:17:06;30.53;;;12.80;;
52320;SDS011;38261;54.090;13.382;2023-04-08T00:18:28;31.87;;;13.63;;
52320;SDS011;38261;54.090;13.382;2023-04-08T00:19:50;33.73;;;12.57;;
52320;SDS011;38261;54.090;13.382;2023-04-08T00:21:13;23.57;;;11.13;;
52320;SDS011;38261;54.090;13.382;2023-04-08T00:22:38;33.70;;;12.40;;
52320;SDS011;38261;54.090;13.382;2023-04-08T00:24:00;26.73;;;12.30;;
52320;SDS011;38261;54.090;13.382;2023-04-08T00:25:22;31.90;;;12.07;;
52320;SDS011;38261;54.090;13.382;2023-04-08T00:26:46;29.43;;;13.00;;
52320;SDS011;38261;54.090;13.382;2023-04-08T00:28:08;31.47;;;13.50;;
52320;SDS011;38261;54.090;13.382;2023-04-08T00:29:30;32.43;;;12.17;;
52320;SDS011;38261;54.090;13.382;2023-04-08T00:30:52;29.13;;;12.60;;
52320;SDS011;38261;54.090;13.382;2023-04-08T00:32:15;33.00;;;12.60;;
52320;SDS011;38261;54.090;13.382;2023-04-08T00:33:37;28.83;;;12.60;;
52320;SDS011;38261;54.090;13.382;2023-04-08T00:34:59;25.43;;;13.03;;
52320;SDS011;38261;54.090;13.382;2023-04-08T00:36:21;30.43;;;12.93;;
52320;SDS011;38261;54.090;13.382;2023-04-08T00:37:43;30.80;;;12.87;;
52320;SDS011;38261;54.090;13.382;2023-04-08T00:39:06;34.70;;;12.80;;
52320;SDS011;38261;54.090;13.382;2023-04-08T00:40:28;33.57;;;11.03;;
52320;SDS011;38261;54.090;13.382;2023-04-08T00:41:50;31.90;;;13.10;;
52320;SDS011;38261;54.090;13.382;2023-04-08T00:43:12;34.33;;;12.47;;
52320;SDS011;38261;54.090;13.382;2023-04-08T00:44:37;31.30;;;12.47;;
52320;SDS011;38261;54.090;13.382;2023-04-08T00:45:59;34.27;;;13.40;;
52320;SDS011;38261;54.090;13.382;2023-04-08T00:47:21;35.37;;;13.00;;
52320;SDS011;38261;54.090;13.382;2023-04-08T00:48:43;25.80;;;11.80;;
52320;SDS011;38261;54.090;13.382;2023-04-08T00:50:08;31.67;;;11.33;;
52320;SDS011;38261;54.090;13.382;2023-04-08T00:51:33;33.50;;;12.60;;
52320;SDS011;38261;54.090;13.382;2023-04-08T00:52:57;31.60;;;11.97;;
52320;SDS011;38261;54.090;13.382;2023-04-08T00:54:19;29.40;;;12.03;;
52320;SDS011;38261;54.090;13.382;2023-04-08T00:55:41;29.83;;;11.90;;
52320;SDS011;38261;54.090;13.382;2023-04-08T00:57:04;32.47;;;12.87;;
52320;SDS011;38261;54.090;13.382;2023-04-08T00:58:27;30.60;;;12.53;;
52320;SDS011;38261;54.090;13.382;2023-04-08T00:59:50;28.20;;;12.40;;
52320;SDS011;38261;54.090;13.382;2023-04-08T01:01:13;23.57;;;11.13;;
52320;SDS011;38261;54.090;13.382;2023-04-08T01:07:21;38.87;;;11.77;;
52320;SDS011;38261;54.090;13.382;2023-04-08T01:08:48;43.23;;;14.47;;
52320;SDS011;38261;54.090;13.382;2023-04-08T01:10:22;32.43;;;13.53;;
52320;SDS011;38261;54.090;13.382;2023-04-08T01:11:53;27.50;;;12.83;;
52320;SDS011;38261;54.090;13.382;2023-04-08T01:13:17;33.17;;;13.60;;
52320;SDS011;38261;54.090;13.382;2023-04-08T01:14:42;34.87;;;13.80;;
52320;SDS011;38261;54.090;13.382;2023-04-08T01:16:08;31.17;;;13.00;;
52320;SDS011;38261;54.090;13.382;2023-04-08T01:17:34;27.40;;;13.37;;
52320;SDS011;38261;54.090;13.382;2023-04-08T01:18:57;28.93;;;13.33;;
52320;SDS011;38261;54.090;13.382;2023-04-08T01:20:21;25.50;;;11.83;;
52320;SDS011;38261;54.090;13.382;2023-04-08T01:21:47;26.40;;;11.40;;
52320;SDS011;38261;54.090;13.382;2023-04-08T01:24:42;27.60;;;12.87;;
52320;SDS011;38261;54.090;13.382;2023-04-08T01:26:06;39.90;;;13.03;;
52320;SDS011;38261;54.090;13.382;2023-04-08T01:27:28;30.50;;;13.10;;
52320;SDS011;38261;54.090;13.382;2023-04-08T01:28:53;33.70;;;13.20;;
52320;SDS011;38261;54.090;13.382;2023-04-08T01:30:18;35.43;;;12.40;;
52320;SDS011;38261;54.090;13.382;2023-04-08T01:31:42;27.03;;;13.73;;
52320;SDS011;38261;54.090;13.382;2023-04-08T01:33:05;42.63;;;13.50;;
52320;SDS011;38261;54.090;13.382;2023-04-08T01:34:28;36.80;;;14.60;;
52320;SDS011;38261;54.090;13.382;2023-04-08T01:35:51;33.50;;;12.80;;
52320;SDS011;38261;54.090;13.382;2023-04-08T01:37:14;33.50;;;12.57;;
52320;SDS011;38261;54.090;13.382;2023-04-08T01:38:37;30.70;;;12.93;;
52320;SDS011;38261;54.090;13.382;2023-04-08T01:40:00;55.53;;;14.53;;
52320;SDS011;38261;54.090;13.382;2023-04-08T01:41:24;41.67;;;13.90;;
52320;SDS011;38261;54.090;13.382;2023-04-08T01:42:46;34.30;;;14.00;;
52320;SDS011;38261;54.090;13.382;2023-04-08T01:44:10;28.37;;;12.93;;
52320;SDS011;38261;54.090;13.382;2023-04-08T01:45:34;31.80;;;13.67;;
52320;SDS011;38261;54.090;13.382;2023-04-08T01:46:56;33.50;;;14.80;;
52320;SDS011;38261;54.090;13.382;2023-04-08T01:48:19;30.93;;;13.07;;
52320;SDS011;38261;54.090;13.382;2023-04-08T01:49:41;34.77;;;13.00;;
52320;SDS011;38261;54.090;13.382;2023-04-08T01:51:04;33.10;;;13.97;;
52320;SDS011;38261;54.090;13.382;2023-04-08T01:52:28;32.20;;;14.97;;
52320;SDS011;38261;54.090;13.382;2023-04-08T01:53:51;39.40;;;14.10;;
52320;SDS011;38261;54.090;13.382;2023-04-08T01:55:13;33.97;;;14.30;;
52320;SDS011;38261;54.090;13.382;2023-04-08T01:56:37;29.33;;;13.40;;
52320;SDS011;38261;54.090;13.382;2023-04-08T01:58:02;26.80;;;12.83;;
52320;SDS011;38261;54.090;13.382;2023-04-08T01:59:28;30.20;;;12.80;;
52320;SDS011;38261;54.090;13.382;2023-04-08T02:00:55;31.83;;;14.40;;
52320;SDS011;38261;54.090;13.382;2023-04-08T02:02:19;38.87;;;14.07;;
52320;SDS011;38261;54.090;13.382;2023-04-08T02:03:43;44.23;;;13.63;;
52320;SDS011;38261;54.090;13.382;2023-04-08T02:05:07;37.43;;;12.87;;
52320;SDS011;38261;54.090;13.382;2023-04-08T02:06:29;31.50;;;12.60;;
52320;SDS011;38261;54.090;13.382;2023-04-08T02:07:52;30.90;;;12.77;;
52320;SDS011;38261;54.090;13.382;2023-04-08T02:09:14;25.90;;;11.57;;
52320;SDS011;38261;54.090;13.382;2023-04-08T02:10:36;29.33;;;12.50;;
52320;SDS011;38261;54.090;13.382;2023-04-08T02:11:58;35.03;;;13.47;;
52320;SDS011;38261;54.090;13.382;2023-04-08T02:13:22;32.83;;;12.43;;
52320;SDS011;38261;54.090;13.382;2023-04-08T02:14:44;27.60;;;12.97;;
52320;SDS011;38261;54.090;13.382;2023-04-08T02:16:13;28.93;;;12.67;;
52320;SDS011;38261;54.090;13.382;2023-04-08T02:17:52;31.97;;;12.70;;
52320;SDS011;38261;54.090;13.382;2023-04-08T02:19:35;28.40;;;13.20;;
52320;SDS011;38261;54.090;13.382;2023-04-08T02:21:12;33.97;;;13.67;;
52320;SDS011;38261;54.090;13.382;2023-04-08T02:22:43;32.43;;;12.47;;
52320;SDS011;38261;54.090;13.382;2023-04-08T02:24:11;32.97;;;12.77;;
52320;SDS011;38261;54.090;13.382;2023-04-08T02:25:36;34.53;;;12.90;;
52320;SDS011;38261;54.090;13.382;2023-04-08T02:27:01;30.27;;;14.30;;
52320;SDS011;38261;54.090;13.382;2023-04-08T02:28:24;30.60;;;13.03;;
52320;SDS011;38261;54.090;13.382;2023-04-08T02:29:47;33.20;;;13.47;;
52320;SDS011;38261;54.090;13.382;2023-04-08T02:31:11;28.63;;;12.70;;
52320;SDS011;38261;54.090;13.382;2023-04-08T02:32:34;36.27;;;13.90;;
52320;SDS011;38261;54.090;13.382;2023-04-08T02:33:57;31.57;;;12.97;;
52320;SDS011;38261;54.090;13.382;2023-04-08T02:35:20;29.40;;;13.97;;
52320;SDS011;38261;54.090;13.382;2023-04-08T02:36:43;35.03;;;12.73;;
52320;SDS011;38261;54.090;13.382;2023-04-08T02:38:08;30.10;;;12.63;;
52320;SDS011;38261;54.090;13.382;2023-04-08T02:39:31;30.03;;;11.93;;
52320;SDS011;38261;54.090;13.382;2023-04-08T02:40:54;32.77;;;11.90;;
52320;SDS011;38261;54.090;13.382;2023-04-08T02:42:16;30.27;;;12.40;;
52320;SDS011;38261;54.090;13.382;2023-04-08T02:43:38;23.93;;;11.10;;
52320;SDS011;38261;54.090;13.382;2023-04-08T02:45:00;27.80;;;12.50;;
52320;SDS011;38261;54.090;13.382;2023-04-08T02:46:23;28.50;;;11.87;;
52320;SDS011;38261;54.090;13.382;2023-04-08T02:47:45;26.80;;;11.93;;
52320;SDS011;38261;54.090;13.382;2023-04-08T02:49:07;28.20;;;11.57;;
52320;SDS011;38261;54.090;13.382;2023-04-08T02:50:29;26.43;;;11.70;;
52320;SDS011;38261;54.090;13.382;2023-04-08T02:51:51;25.23;;;11.83;;
52320;SDS011;38261;54.090;13.382;2023-04-08T02:53:13;32.10;;;11.63;;
52320;SDS011;38261;54.090;13.382;2023-04-08T02:54:36;24.53;;;11.80;;
52320;SDS011;38261;54.090;13.382;2023-04-08T02:55:58;28.50;;;11.63;;
52320;SDS011;38261;54.090;13.382;2023-04-08T02:57:20;28.87;;;12.00;;
52320;SDS011;38261;54.090;13.382;2023-04-08T02:58:43;27.50;;;12.27;;
52320;SDS011;38261;54.090;13.382;2023-04-08T03:00:05;32.40;;;11.83;;
52320;SDS011;38261;54.090;13.382;2023-04-08T03:01:28;26.90;;;12.27;;
52320;SDS011;38261;54.090;13.382;2023-04-08T03:02:51;26.50;;;13.03;;
52320;SDS011;38261;54.090;13.382;2023-04-08T03:04:13;31.07;;;11.50;;
52320;SDS011;38261;54.090;13.382;2023-04-08T03:05:35;28.97;;;11.80;;
52320;SDS011;38261;54.090;13.382;2023-04-08T03:06:57;30.17;;;11.63;;
52320;SDS011;38261;54.090;13.382;2023-04-08T03:08:19;31.20;;;13.57;;
52320;SDS011;38261;54.090;13.382;2023-04-08T03:09:42;31.53;;;14.07;;
52320;SDS011;38261;54.090;13.382;2023-04-08T03:11:04;24.57;;;11.97;;
52320;SDS011;38261;54.090;13.382;2023-04-08T03:12:26;25.57;;;12.10;;
52320;SDS011;38261;54.090;13.382;2023-04-08T03:13:48;27.87;;;12.10;;
52320;SDS011;38261;54.090;13.382;2023-04-08T03:15:11;29.97;;;10.93;;
52320;SDS011;38261;54.090;13.382;2023-04-08T03:16:33;30.60;;;12.17;;
52320;SDS011;38261;54.090;13.382;2023-04-08T03:17:55;23.97;;;10.97;;
52320;SDS011;38261;54.090;13.382;2023-04-08T03:19:17;28.47;;;11.63;;
52320;SDS011;38261;54.090;13.382;2023-04-08T03:20:39;21.87;;;10.97;;
52320;SDS011;38261;54.090;13.382;2023-04-08T03:22:01;31.50;;;12.23;;
52320;SDS011;38261;54.090;13.382;2023-04-08T03:23:23;29.87;;;12.50;;
52320;SDS011;38261;54.090;13.382;2023-04-08T03:24:45;27.37;;;12.33;;
52320;SDS011;38261;54.090;13.382;2023-04-08T03:26:07;37.17;;;11.47;;
52320;SDS011;38261;54.090;13.382;2023-04-08T03:27:29;22.90;;;12.13;;
52320;SDS011;38261;54.090;13.382;2023-04-08T03:28:52;33.03;;;12.50;;
52320;SDS011;38261;54.090;13.382;2023-04-08T03:30:14;26.47;;;10.90;;
52320;SDS011;38261;54.090;13.382;2023-04-08T03:31:36;24.87;;;11.70;;
52320;SDS011;38261;54.090;13.382;2023-04-08T03:32:58;26.80;;;12.07;;
52320;SDS011;38261;54.090;13.382;2023-04-08T03:34:20;21.97;;;10.43;;
52320;SDS011;38261;54.090;13.382;2023-04-08T03:35:42;27.30;;;11.87;;
52320;SDS011;38261;54.090;13.382;2023-04-08T03:37:05;26.60;;;11.80;;
52320;SDS011;38261;54.090;13.382;2023-04-08T03:38:27;34.30;;;10.60;;
52320;SDS011;38261;54.090;13.382;2023-04-08T03:39:49;22.63;;;11.53;;
52320;SDS011;38261;54.090;13.382;2023-04-08T03:41:11;23.47;;;10.80;;
52320;SDS011;38261;54.090;13.382;2023-04-08T03:42:33;28.83;;;10.47;;
52320;SDS011;38261;54.090;13.382;2023-04-08T03:43:56;20.40;;;10.37;;
52320;SDS011;38261;54.090;13.382;2023-04-08T03:45:18;25.87;;;11.13;;
52320;SDS011;38261;54.090;13.382;2023-04-08T03:46:41;22.30;;;10.07;;
52320;SDS011;38261;54.090;13.382;2023-04-08T03:48:03;28.00;;;11.30;;
52320;SDS011;38261;54.090;13.382;2023-04-08T03:49:25;23.73;;;10.87;;
52320;SDS011;38261;54.090;13.382;2023-04-08T03:50:47;22.23;;;10.00;;
52320;SDS011;38261;54.090;13.382;2023-04-08T03:52:09;28.03;;;12.07;;
52320;SDS011;38261;54.090;13.382;2023-04-08T03:53:31;25.20;;;10.47;;
52320;SDS011;38261;54.090;13.382;2023-04-08T03:54:53;28.20;;;10.33;;
52320;SDS011;38261;54.090;13.382;2023-04-08T03:56:16;20.47;;;10.13;;
52320;SDS011;38261;54.090;13.382;2023-04-08T03:57:38;22.90;;;10.30;;
52320;SDS011;38261;54.090;13.382;2023-04-08T03:59:00;25.67;;;10.90;;
52320;SDS011;38261;54.090;13.382;2023-04-08T04:00:22;25.83;;;10.20;;
52320;SDS011;38261;54.090;13.382;2023-04-08T04:01:44;28.57;;;10.60;;
52320;SDS011;38261;54.090;13.382;2023-04-08T04:03:06;27.07;;;11.13;;
52320;SDS011;38261;54.090;13.382;2023-04-08T04:04:31;19.57;;;10.63;;
52320;SDS011;38261;54.090;13.382;2023-04-08T04:05:54;20.10;;;9.53;;
52320;SDS011;38261;54.090;13.382;2023-04-08T04:07:16;19.90;;;10.40;;
52320;SDS011;38261;54.090;13.382;2023-04-08T04:08:38;24.40;;;10.07;;
52320;SDS011;38261;54.090;13.382;2023-04-08T04:10:00;28.10;;;10.00;;
52320;SDS011;38261;54.090;13.382;2023-04-08T04:11:22;26.77;;;10.30;;
52320;SDS011;38261;54.090;13.382;2023-04-08T04:12:45;24.87;;;11.20;;
52320;SDS011;38261;54.090;13.382;2023-04-08T04:14:08;24.23;;;10.60;;
52320;SDS011;38261;54.090;13.382;2023-04-08T04:15:30;23.20;;;10.73;;
52320;SDS011;38261;54.090;13.382;2023-04-08T04:16:52;21.93;;;10.90;;
52320;SDS011;38261;54.090;13.382;2023-04-08T04:18:14;25.50;;;11.83;;
52320;SDS011;38261;54.090;13.382;2023-04-08T04:19:36;30.30;;;12.23;;
52320;SDS011;38261;54.090;13.382;2023-04-08T04:20:59;26.30;;;11.30;;
52320;SDS011;38261;54.090;13.382;2023-04-08T04:22:21;24.40;;;11.57;;
52320;SDS011;38261;54.090;13.382;2023-04-08T04:23:43;21.20;;;10.77;;
52320;SDS011;38261;54.090;13.382;2023-04-08T04:25:05;22.03;;;11.27;;
52320;SDS011;38261;54.090;13.382;2023-04-08T04:26:27;23.97;;;10.10;;
52320;SDS011;38261;54.090;13.382;2023-04-08T04:27:49;26.60;;;10.77;;
52320;SDS011;38261;54.090;13.382;2023-04-08T04:29:12;30.10;;;10.70;;
52320;SDS011;38261;54.090;13.382;2023-04-08T04:30:37;25.53;;;11.10;;
52320;SDS011;38261;54.090;13.382;2023-04-08T04:32:00;28.13;;;12.00;;
52320;SDS011;38261;54.090;13.382;2023-04-08T04:33:22;22.33;;;10.83;;
52320;SDS011;38261;54.090;13.382;2023-04-08T04:34:44;25.60;;;11.33;;
52320;SDS011;38261;54.090;13.382;2023-04-08T04:36:06;27.53;;;11.50;;
52320;SDS011;38261;54.090;13.382;2023-04-08T04:37:29;25.40;;;10.40;;
52320;SDS011;38261;54.090;13.382;2023-04-08T04:38:51;27.63;;;12.30;;
52320;SDS011;38261;54.090;13.382;2023-04-08T04:40:14;21.97;;;10.73;;
52320;SDS011;38261;54.090;13.382;2023-04-08T04:41:36;24.40;;;11.10;;
52320;SDS011;38261;54.090;13.382;2023-04-08T04:43:01;25.00;;;11.57;;
52320;SDS011;38261;54.090;13.382;2023-04-08T04:44:23;22.73;;;11.40;;
52320;SDS011;38261;54.090;13.382;2023-04-08T04:45:45;21.03;;;11.30;;
52320;SDS011;38261;54.090;13.382;2023-04-08T04:47:07;28.30;;;11.90;;
52320;SDS011;38261;54.090;13.382;2023-04-08T04:48:30;29.60;;;11.43;;
52320;SDS011;38261;54.090;13.382;2023-04-08T04:49:52;25.30;;;11.40;;
52320;SDS011;38261;54.090;13.382;2023-04-08T04:51:14;22.97;;;11.83;;
52320;SDS011;38261;54.090;13.382;2023-04-08T04:52:36;24.93;;;11.73;;
52320;SDS011;38261;54.090;13.382;2023-04-08T04:53:58;21.30;;;10.77;;
52320;SDS011;38261;54.090;13.382;2023-04-08T04:55:20;29.53;;;12.43;;
52320;SDS011;38261;54.090;13.382;2023-04-08T04:56:43;27.77;;;11.23;;
52320;SDS011;38261;54.090;13.382;2023-04-08T04:58:05;25.80;;;11.37;;
52320;SDS011;38261;54.090;13.382;2023-04-08T04:59:27;22.53;;;11.20;;
52320;SDS011;38261;54.090;13.382;2023-04-08T05:00:49;26.20;;;11.80;;
52320;SDS011;38261;54.090;13.382;2023-04-08T05:02:11;25.40;;;12.87;;
52320;SDS011;38261;54.090;13.382;2023-04-08T05:03:33;26.93;;;11.37;;
52320;SDS011;38261;54.090;13.382;2023-04-08T05:04:55;23.17;;;11.67;;
52320;SDS011;38261;54.090;13.382;2023-04-08T05:06:18;25.07;;;11.80;;
52320;SDS011;38261;54.090;13.382;2023-04-08T05:07:40;30.83;;;12.13;;
52320;SDS011;38261;54.090;13.382;2023-04-08T05:09:02;28.90;;;13.40;;
52320;SDS011;38261;54.090;13.382;2023-04-08T05:10:24;25.73;;;11.60;;
52320;SDS011;38261;54.090;13.382;2023-04-08T05:11:46;31.13;;;13.20;;
52320;SDS011;38261;54.090;13.382;2023-04-08T05:13:08;25.10;;;12.30;;
52320;SDS011;38261;54.090;13.382;2023-04-08T05:14:30;35.73;;;14.60;;
52320;SDS011;38261;54.090;13.382;2023-04-08T05:15:53;36.17;;;13.20;;
52320;SDS011;38261;54.090;13.382;2023-04-08T05:17:16;28.73;;;12.93;;
52320;SDS011;38261;54.090;13.382;2023-04-08T05:18:38;28.23;;;11.93;;
52320;SDS011;38261;54.090;13.382;2023-04-08T05:20:00;31.30;;;12.87;;
52320;SDS011;38261;54.090;13.382;2023-04-08T05:21:22;27.83;;;12.20;;
52320;SDS011;38261;54.090;13.382;2023-04-08T05:22:45;30.50;;;14.67;;
52320;SDS011;38261;54.090;13.382;2023-04-08T05:24:07;28.73;;;13.03;;
52320;SDS011;38261;54.090;13.382;2023-04-08T05:25:30;26.93;;;12.73;;
52320;SDS011;38261;54.090;13.382;2023-04-08T05:26:52;29.67;;;14.30;;
52320;SDS011;38261;54.090;13.382;2023-04-08T05:28:14;26.60;;;12.57;;
52320;SDS011;38261;54.090;13.382;2023-04-08T05:29:36;32.03;;;12.77;;
52320;SDS011;38261;54.090;13.382;2023-04-08T05:30:58;26.37;;;13.37;;
52320;SDS011;38261;54.090;13.382;2023-04-08T05:32:21;23.47;;;12.40;;
52320;SDS011;38261;54.090;13.382;2023-04-08T05:33:43;39.20;;;14.97;;
52320;SDS011;38261;54.090;13.382;2023-04-08T05:35:06;27.63;;;12.80;;
52320;SDS011;38261;54.090;13.382;2023-04-08T05:36:30;24.03;;;12.57;;
52320;SDS011;38261;54.090;13.382;2023-04-08T05:37:52;33.20;;;11.43;;
52320;SDS011;38261;54.090;13.382;2023-04-08T05:39:15;29.87;;;12.60;;
52320;SDS011;38261;54.090;13.382;2023-04-08T05:40:37;24.57;;;10.87;;
52320;SDS011;38261;54.090;13.382;2023-04-08T05:41:59;29.77;;;13.23;;
52320;SDS011;38261;54.090;13.382;2023-04-08T05:43:21;28.87;;;12.00;;
52320;SDS011;38261;54.090;13.382;2023-04-08T05:44:43;27.53;;;13.10;;
52320;SDS011;38261;54.090;13.382;2023-04-08T05:46:06;28.03;;;12.20;;
52320;SDS011;38261;54.090;13.382;2023-04-08T05:47:29;34.50;;;11.90;;
52320;SDS011;38261;54.090;13.382;2023-04-08T05:48:51;36.17;;;13.87;;
52320;SDS011;38261;54.090;13.382;2023-04-08T05:50:13;30.03;;;11.77;;
52320;SDS011;38261;54.090;13.382;2023-04-08T05:51:35;35.00;;;14.13;;
52320;SDS011;38261;54.090;13.382;2023-04-08T05:52:57;28.80;;;12.30;;
52320;SDS011;38261;54.090;13.382;2023-04-08T05:54:19;29.93;;;12.43;;
52320;SDS011;38261;54.090;13.382;2023-04-08T05:55:42;31.80;;;12.40;;
52320;SDS011;38261;54.090;13.382;2023-04-08T05:57:04;31.10;;;14.20;;
52320;SDS011;38261;54.090;13.382;2023-04-08T05:58:26;36.97;;;13.03;;
52320;SDS011;38261;54.090;13.382;2023-04-08T05:59:48;27.80;;;13.07;;
52320;SDS011;38261;54.090;13.382;2023-04-08T06:01:10;34.17;;;13.87;;
52320;SDS011;38261;54.090;13.382;2023-04-08T06:02:32;30.83;;;13.10;;
52320;SDS011;38261;54.090;13.382;2023-04-08T06:03:55;30.53;;;12.33;;
52320;SDS011;38261;54.090;13.382;2023-04-08T06:05:18;31.70;;;13.57;;
52320;SDS011;38261;54.090;13.382;2023-04-08T06:06:40;30.30;;;13.73;;
52320;SDS011;38261;54.090;13.382;2023-04-08T06:08:02;27.93;;;13.57;;
52320;SDS011;38261;54.090;13.382;2023-04-08T06:09:24;32.80;;;12.33;;
52320;SDS011;38261;54.090;13.382;2023-04-08T06:10:47;26.67;;;12.30;;
52320;SDS011;38261;54.090;13.382;2023-04-08T06:12:10;28.10;;;12.87;;
52320;SDS011;38261;54.090;13.382;2023-04-08T06:13:32;41.27;;;16.00;;
52320;SDS011;38261;54.090;13.382;2023-04-08T06:14:55;31.77;;;12.40;;
52320;SDS011;38261;54.090;13.382;2023-04-08T06:16:17;26.90;;;12.97;;
52320;SDS011;38261;54.090;13.382;2023-04-08T06:17:41;32.03;;;11.80;;
52320;SDS011;38261;54.090;13.382;2023-04-08T06:19:03;31.40;;;12.87;;
52320;SDS011;38261;54.090;13.382;2023-04-08T06:20:26;34.83;;;12.90;;
52320;SDS011;38261;54.090;13.382;2023-04-08T06:21:48;34.57;;;13.90;;
52320;SDS011;38261;54.090;13.382;2023-04-08T06:23:12;27.40;;;13.60;;
52320;SDS011;38261;54.090;13.382;2023-04-08T06:24:34;32.63;;;13.10;;
52320;SDS011;38261;54.090;13.382;2023-04-08T06:25:56;31.90;;;14.47;;
52320;SDS011;38261;54.090;13.382;2023-04-08T06:27:19;34.27;;;14.57;;
52320;SDS011;38261;54.090;13.382;2023-04-08T06:28:41;32.13;;;12.50;;
52320;SDS011;38261;54.090;13.382;2023-04-08T06:30:03;31.03;;;12.93;;
52320;SDS011;38261;54.090;13.382;2023-04-08T06:31:26;31.40;;;13.10;;
52320;SDS011;38261;54.090;13.382;2023-04-08T06:32:48;26.67;;;12.63;;
52320;SDS011;38261;54.090;13.382;2023-04-08T06:34:10;29.30;;;13.47;;
52320;SDS011;38261;54.090;13.382;2023-04-08T06:35:32;29.00;;;13.33;;
52320;SDS011;38261;54.090;13.382;2023-04-08T06:36:54;30.50;;;12.50;;
52320;SDS011;38261;54.090;13.382;2023-04-08T06:38:16;32.03;;;12.70;;
52320;SDS011;38261;54.090;13.382;2023-04-08T06:39:38;30.23;;;12.23;;
52320;SDS011;38261;54.090;13.382;2023-04-08T06:41:07;31.50;;;13.63;;
52320;SDS011;38261;54.090;13.382;2023-04-08T06:42:29;33.77;;;14.20;;
52320;SDS011;38261;54.090;13.382;2023-04-08T06:43:51;33.93;;;13.53;;
52320;SDS011;38261;54.090;13.382;2023-04-08T06:45:13;31.07;;;14.60;;
52320;SDS011;38261;54.090;13.382;2023-04-08T06:46:36;30.23;;;14.43;;
52320;SDS011;38261;54.090;13.382;2023-04-08T06:47:58;32.00;;;15.63;;
52320;SDS011;38261;54.090;13.382;2023-04-08T06:49:21;34.87;;;15.90;;
52320;SDS011;38261;54.090;13.382;2023-04-08T06:50:43;35.40;;;13.40;;
52320;SDS011;38261;54.090;13.382;2023-04-08T06:52:05;34.27;;;14.90;;
52320;SDS011;38261;54.090;13.382;2023-04-08T06:53:27;32.73;;;14.93;;
52320;SDS011;38261;54.090;13.382;2023-04-08T06:54:53;27.33;;;14.40;;
52320;SDS011;38261;54.090;13.382;2023-04-08T06:56:16;36.97;;;14.53;;
52320;SDS011;38261;54.090;13.382;2023-04-08T06:57:38;30.93;;;14.67;;
52320;SDS011;38261;54.090;13.382;2023-04-08T06:59:00;32.60;;;14.03;;
52320;SDS011;38261;54.090;13.382;2023-04-08T07:00:23;35.63;;;15.43;;
52320;SDS011;38261;54.090;13.382;2023-04-08T07:01:45;35.70;;;16.00;;
52320;SDS011;38261;54.090;13.382;2023-04-08T07:03:08;33.87;;;14.40;;
52320;SDS011;38261;54.090;13.382;2023-04-08T07:04:31;30.97;;;15.20;;
52320;SDS011;38261;54.090;13.382;2023-04-08T07:05:54;29.30;;;14.57;;
52320;SDS011;38261;54.090;13.382;2023-04-08T07:07:16;36.43;;;14.27;;
52320;SDS011;38261;54.090;13.382;2023-04-08T07:08:39;38.43;;;15.70;;
52320;SDS011;38261;54.090;13.382;2023-04-08T07:10:01;31.03;;;14.50;;
52320;SDS011;38261;54.090;13.382;2023-04-08T07:11:23;29.03;;;14.20;;
52320;SDS011;38261;54.090;13.382;2023-04-08T07:12:46;33.77;;;14.27;;
52320;SDS011;38261;54.090;13.382;2023-04-08T07:14:08;29.33;;;13.13;;
52320;SDS011;38261;54.090;13.382;2023-04-08T07:15:30;32.23;;;13.70;;
52320;SDS011;38261;54.090;13.382;2023-04-08T07:16:52;31.80;;;13.43;;
52320;SDS011;38261;54.090;13.382;2023-04-08T07:18:14;33.43;;;13.80;;
52320;SDS011;38261;54.090;13.382;2023-04-08T07:19:37;27.97;;;13.50;;
52320;SDS011;38261;54.090;13.382;2023-04-08T07:20:59;28.33;;;12.27;;
52320;SDS011;38261;54.090;13.382;2023-04-08T07:22:21;36.20;;;14.43;;
52320;SDS011;38261;54.090;13.382;2023-04-08T07:23:43;28.43;;;13.07;;
52320;SDS011;38261;54.090;13.382;2023-04-08T07:25:05;24.50;;;12.50;;
52320;SDS011;38261;54.090;13.382;2023-04-08T07:26:28;31.90;;;14.47;;
52320;SDS011;38261;54.090;13.382;2023-04-08T07:27:50;34.60;;;13.60;;
52320;SDS011;38261;54.090;13.382;2023-04-08T07:29:13;34.17;;;13.80;;
52320;SDS011;38261;54.090;13.382;2023-04-08T07:30:36;25.50;;;12.50;;
52320;SDS011;38261;54.090;13.382;2023-04-08T07:31:58;30.27;;;12.40;;
52320;SDS011;38261;54.090;13.382;2023-04-08T07:33:20;29.53;;;12.93;;
52320;SDS011;38261;54.090;13.382;2023-04-08T07:34:44;33.87;;;12.40;;
52320;SDS011;38261;54.090;13.382;2023-04-08T07:36:07;32.87;;;12.47;;
52320;SDS011;38261;54.090;13.382;2023-04-08T07:37:31;27.07;;;12.70;;
52320;SDS011;38261;54.090;13.382;2023-04-08T07:38:36;24.20;;;12.77;;
52320;SDS011;38261;54.090;13.382;2023-04-08T07:39:59;27.53;;;12.03;;
52320;SDS011;38261;54.090;13.382;2023-04-08T07:41:21;31.20;;;12.70;;
52320;SDS011;38261;54.090;13.382;2023-04-08T07:42:43;25.57;;;13.20;;
52320;SDS011;38261;54.090;13.382;2023-04-08T07:44:05;25.07;;;13.27;;
52320;SDS011;38261;54.090;13.382;2023-04-08T07:45:28;29.70;;;13.13;;
52320;SDS011;38261;54.090;13.382;2023-04-08T07:46:50;32.40;;;12.90;;
52320;SDS011;38261;54.090;13.382;2023-04-08T07:48:12;26.57;;;11.43;;
52320;SDS011;38261;54.090;13.382;2023-04-08T07:49:34;29.40;;;12.67;;
52320;SDS011;38261;54.090;13.382;2023-04-08T07:50:57;37.60;;;12.40;;
52320;SDS011;38261;54.090;13.382;2023-04-08T07:52:31;26.60;;;12.20;;
52320;SDS011;38261;54.090;13.382;2023-04-08T07:53:53;34.37;;;13.90;;
52320;SDS011;38261;54.090;13.382;2023-04-08T07:55:16;30.60;;;12.83;;
52320;SDS011;38261;54.090;13.382;2023-04-08T07:56:38;30.10;;;12.80;;
52320;SDS011;38261;54.090;13.382;2023-04-08T07:58:01;28.60;;;11.70;;
52320;SDS011;38261;54.090;13.382;2023-04-08T07:59:23;29.10;;;12.37;;
52320;SDS011;38261;54.090;13.382;2023-04-08T08:00:45;22.07;;;11.90;;
52320;SDS011;38261;54.090;13.382;2023-04-08T08:02:07;25.83;;;13.17;;
52320;SDS011;38261;54.090;13.382;2023-04-08T08:03:29;23.33;;;11.37;;